createdAt,value
2019-02-10T00:00:07.290Z,97860.97
2019-02-10T00:02:36.543Z,97863.80
2019-02-10T00:05:06.307Z,97869.06
2019-02-10T00:07:35.599Z,97865.91
2019-02-10T00:10:05.087Z,97870.76
2019-02-10T00:12:34.371Z,97870.76
2019-02-10T00:15:03.632Z,97870.53
2019-02-10T00:17:33.048Z,97868.15
2019-02-10T00:20:02.322Z,97865.44
2019-02-10T00:22:31.559Z,97857.08
2019-02-10T00:25:00.857Z,97862.17
2019-02-10T00:27:30.083Z,97854.05
2019-02-10T00:29:59.393Z,97857.87
2019-02-10T00:32:28.744Z,97849.44
2019-02-10T00:34:58.001Z,97849.21
2019-02-10T00:37:27.270Z,97843.86
2019-02-10T00:39:56.523Z,97844.91
2019-02-10T00:42:25.795Z,97841.81
2019-02-10T00:44:55.063Z,97841.73
2019-02-10T00:47:24.307Z,97840.13
2019-02-10T00:49:53.608Z,97842.51
2019-02-10T00:52:22.875Z,97834.39
2019-02-10T00:54:52.122Z,97825.41
2019-02-10T00:57:21.403Z,97819.14
2019-02-10T00:59:50.644Z,97820.22
2019-02-10T01:02:19.950Z,97818.95
2019-02-10T01:04:49.208Z,97822.63
2019-02-10T01:07:18.652Z,97818.15
2019-02-10T01:09:47.937Z,97814.83
2019-02-10T01:12:17.212Z,97808.77
2019-02-10T01:14:46.455Z,97805.11
2019-02-10T01:17:15.730Z,97799.70
2019-02-10T01:19:45.184Z,97788.72
2019-02-10T01:22:14.630Z,97789.75
2019-02-10T01:24:43.875Z,97793.80
2019-02-10T01:27:13.154Z,97790.80
2019-02-10T01:29:42.400Z,97789.45
2019-02-10T01:32:11.640Z,97784.11
2019-02-10T01:34:40.932Z,97789.12
2019-02-10T01:37:10.202Z,97783.08
2019-02-10T01:39:39.525Z,97768.83
2019-02-10T01:42:08.867Z,97768.67
2019-02-10T01:44:38.191Z,97760.31
2019-02-10T01:47:07.465Z,97763.02
2019-02-10T01:49:36.719Z,97756.17
2019-02-10T01:52:05.999Z,97755.73
2019-02-10T01:54:35.270Z,97740.02
2019-02-10T01:57:04.531Z,97736.23
2019-02-10T01:59:34.805Z,97725.09
2019-02-10T02:02:04.058Z,97723.47
2019-02-10T02:04:33.413Z,97709.58
2019-02-10T02:07:04.151Z,97700.27
2019-02-10T02:09:33.419Z,97692.00
2019-02-10T02:12:02.693Z,97690.56
2019-02-10T02:14:31.953Z,97686.74
2019-02-10T02:17:01.249Z,97681.05
2019-02-10T02:19:30.523Z,97671.27
2019-02-10T02:21:59.783Z,97653.29
2019-02-10T02:24:29.062Z,97630.92
2019-02-10T02:26:58.323Z,97634.19
2019-02-10T02:29:27.602Z,97644.21
2019-02-10T02:31:56.860Z,97644.63
2019-02-10T02:34:26.156Z,97642.25
2019-02-10T02:36:55.454Z,97632.14
2019-02-10T02:39:25.110Z,97637.69
2019-02-10T02:41:54.394Z,97640.06
2019-02-10T02:44:23.665Z,97636.57
2019-02-10T02:46:52.912Z,97638.33
2019-02-10T02:49:23.179Z,97632.19
2019-02-10T02:51:52.447Z,97625.80
2019-02-10T02:54:21.690Z,97620.67
2019-02-10T02:56:50.961Z,97613.34
2019-02-10T02:59:20.232Z,97610.76
2019-02-10T03:01:49.492Z,97592.56
2019-02-10T03:04:18.766Z,97592.80
2019-02-10T03:06:48.609Z,97594.16
2019-02-10T03:09:18.258Z,97580.16
2019-02-10T03:11:47.508Z,97576.64
2019-02-10T03:14:16.786Z,97570.92
2019-02-10T03:16:46.164Z,97561.51
2019-02-10T03:19:15.419Z,97552.47
2019-02-10T03:21:44.785Z,97564.95
2019-02-10T03:24:14.148Z,97556.69
2019-02-10T03:26:43.459Z,97549.13
2019-02-10T03:29:12.729Z,97555.24
2019-02-10T03:31:41.970Z,97556.59
2019-02-10T03:34:11.409Z,97546.28
2019-02-10T03:36:40.694Z,97553.66
2019-02-10T03:39:09.946Z,97540.19
2019-02-10T03:41:39.225Z,97535.45
2019-02-10T03:44:08.483Z,97526.38
2019-02-10T03:46:37.746Z,97518.58
2019-02-10T03:49:07.025Z,97513.70
2019-02-10T03:51:36.274Z,97506.52
2019-02-10T03:54:05.669Z,97508.87
2019-02-10T03:56:36.507Z,97497.95
2019-02-10T03:59:05.779Z,97492.05
2019-02-10T04:01:35.032Z,97496.89
2019-02-10T04:04:04.320Z,97489.23
2019-02-10T04:06:33.569Z,97483.27
2019-02-10T04:09:02.895Z,97484.95
2019-02-10T04:11:32.161Z,97488.95
2019-02-10T04:14:01.426Z,97482.24
2019-02-10T04:16:30.704Z,97488.13
2019-02-10T04:18:59.973Z,97489.70
2019-02-10T04:21:29.228Z,97476.19
2019-02-10T04:23:58.493Z,97466.30
2019-02-10T04:26:27.747Z,97455.89
2019-02-10T04:28:57.027Z,97455.70
2019-02-10T04:31:26.264Z,97450.09
2019-02-10T04:33:55.548Z,97438.05
2019-02-10T04:36:24.827Z,97429.56
2019-02-10T04:38:54.071Z,97429.80
2019-02-10T04:41:23.465Z,97416.73
2019-02-10T04:43:52.723Z,97406.83
2019-02-10T04:46:21.994Z,97397.78
2019-02-10T04:48:51.267Z,97390.12
2019-02-10T04:51:21.978Z,97386.55
2019-02-10T04:53:51.240Z,97383.81
2019-02-10T04:56:20.669Z,97375.00
2019-02-10T04:58:50.073Z,97369.25
2019-02-10T05:01:19.338Z,97364.20
2019-02-10T05:03:48.590Z,97363.05
2019-02-10T05:06:17.878Z,97355.13
2019-02-10T05:08:47.127Z,97345.64
2019-02-10T05:11:16.400Z,97340.70
2019-02-10T05:13:45.641Z,97332.58
2019-02-10T05:16:14.895Z,97334.25
2019-02-10T05:18:44.190Z,97321.97
2019-02-10T05:21:13.462Z,97314.19
2019-02-10T05:23:42.694Z,97303.02
2019-02-10T05:26:12.001Z,97291.78
2019-02-10T05:28:41.321Z,97291.32
2019-02-10T05:31:10.582Z,97287.72
2019-02-10T05:33:39.823Z,97280.50
2019-02-10T05:36:09.126Z,97280.16
2019-02-10T05:38:38.359Z,97278.94
2019-02-10T05:41:07.635Z,97278.45
2019-02-10T05:43:36.879Z,97262.45
2019-02-10T05:46:06.169Z,97266.05
2019-02-10T05:48:35.432Z,97255.13
2019-02-10T05:51:04.686Z,97271.69
2019-02-10T05:53:33.966Z,97276.65
2019-02-10T05:56:03.221Z,97287.70
2019-02-10T05:58:32.486Z,97294.04
2019-02-10T06:01:50.288Z,97282.52
2019-02-10T06:04:19.570Z,97264.70
2019-02-10T06:06:49.012Z,97264.47
2019-02-10T06:09:18.242Z,97268.09
2019-02-10T06:11:47.529Z,97256.36
2019-02-10T06:14:18.253Z,97238.63
2019-02-10T06:16:47.500Z,97217.53
2019-02-10T06:19:16.773Z,97195.42
2019-02-10T06:21:46.001Z,97189.77
2019-02-10T06:24:15.308Z,97174.89
2019-02-10T06:26:44.559Z,97195.53
2019-02-10T06:29:13.851Z,97220.23
2019-02-10T06:31:43.093Z,97205.02
2019-02-10T06:34:12.348Z,97205.34
2019-02-10T06:36:41.754Z,97234.47
2019-02-10T06:39:11.226Z,97218.45
2019-02-10T06:41:41.774Z,97220.03
2019-02-10T06:44:11.042Z,97196.33
2019-02-10T06:46:40.318Z,97184.13
2019-02-10T06:49:09.565Z,97172.73
2019-02-10T06:51:38.881Z,97166.41
2019-02-10T06:54:08.218Z,97169.80
2019-02-10T06:56:37.516Z,97157.94
2019-02-10T06:59:09.651Z,97153.20
2019-02-10T07:01:44.136Z,97144.28
2019-02-10T07:04:21.404Z,97147.33
2019-02-10T07:06:50.678Z,97131.52
2019-02-10T07:09:19.918Z,97120.69
2019-02-10T07:11:49.178Z,97118.88
2019-02-10T07:14:24.456Z,97132.64
2019-02-10T07:17:40.996Z,97116.84
2019-02-10T07:20:45.557Z,97107.81
2019-02-10T07:24:07.103Z,97100.58
2019-02-10T07:27:08.410Z,97095.12
2019-02-10T07:30:18.518Z,97119.72
2019-02-10T07:32:50.584Z,97112.27
2019-02-10T07:35:39.820Z,97105.04
2019-02-10T07:38:38.512Z,97102.55
2019-02-10T07:42:12.598Z,97101.94
2019-02-10T07:45:19.169Z,97100.77
2019-02-10T07:48:27.848Z,97100.57
2019-02-10T07:51:25.586Z,97098.94
2019-02-10T07:54:10.058Z,97099.80
2019-02-10T07:57:38.232Z,97078.83
2019-02-10T08:00:42.682Z,97075.55
2019-02-10T08:03:31.371Z,97074.81
2019-02-10T08:06:15.487Z,97078.31
2019-02-10T08:09:35.175Z,97073.09
2019-02-10T08:12:42.187Z,97064.69
2019-02-10T08:15:43.064Z,97068.48
2019-02-10T08:18:39.723Z,97052.14
2019-02-10T08:21:40.841Z,97055.42
2019-02-10T08:24:53.230Z,97057.48
2019-02-10T08:28:15.470Z,97062.78
2019-02-10T08:31:20.689Z,97071.25
2019-02-10T08:34:19.488Z,97071.31
2019-02-10T08:37:32.687Z,97063.80
2019-02-10T08:40:38.343Z,97070.20
2019-02-10T08:43:57.805Z,97078.22
2019-02-10T08:46:49.991Z,97079.52
2019-02-10T08:49:31.164Z,97059.92
2019-02-10T08:52:39.804Z,97040.05
2019-02-10T08:55:09.097Z,97029.41
2019-02-10T08:57:38.350Z,97010.03
2019-02-10T09:00:09.063Z,96996.64
2019-02-10T09:02:38.308Z,96975.77
2019-02-10T09:05:07.610Z,96962.90
2019-02-10T09:07:36.865Z,96956.38
2019-02-10T09:10:07.247Z,96946.13
2019-02-10T09:12:36.502Z,96938.13
2019-02-10T09:15:07.207Z,96914.31
2019-02-10T09:17:36.485Z,96924.44
2019-02-10T09:20:06.486Z,96909.09
2019-02-10T09:22:35.785Z,96908.53
2019-02-10T09:25:05.669Z,96897.38
2019-02-10T09:27:35.974Z,96889.58
2019-02-10T09:30:06.110Z,96885.30
2019-02-10T09:32:35.409Z,96876.29
2019-02-10T09:35:04.950Z,96861.17
2019-02-10T09:37:34.202Z,96827.02
2019-02-10T09:40:03.553Z,96818.44
2019-02-10T09:42:32.806Z,96808.23
2019-02-10T09:45:02.054Z,96784.48
2019-02-10T09:47:31.333Z,96791.27
2019-02-10T09:50:00.619Z,96783.66
2019-02-10T09:52:30.083Z,96787.77
2019-02-10T09:54:59.374Z,96780.73
2019-02-10T09:57:28.612Z,96775.64
2019-02-10T09:59:57.910Z,96780.30
2019-02-10T10:02:32.647Z,96777.75
2019-02-10T10:05:05.024Z,96766.59
2019-02-10T10:07:36.207Z,96776.18
2019-02-10T10:10:07.200Z,96770.97
2019-02-10T10:12:37.559Z,96767.53
2019-02-10T10:15:09.456Z,96752.92
2019-02-10T10:17:39.589Z,96751.20
2019-02-10T10:20:11.476Z,96760.33
2019-02-10T10:22:42.353Z,96749.27
2019-02-10T10:25:12.117Z,96744.77
2019-02-10T10:27:41.590Z,96736.41
2019-02-10T10:30:13.849Z,96735.46
2019-02-10T10:32:43.477Z,96742.68
2019-02-10T10:35:13.132Z,96742.97
2019-02-10T10:37:42.691Z,96733.13
2019-02-10T10:40:12.662Z,96724.98
2019-02-10T10:42:42.126Z,96719.00
2019-02-10T10:45:33.893Z,96715.52
2019-02-10T10:48:03.204Z,96701.39
2019-02-10T10:50:34.900Z,96696.48
2019-02-10T10:53:04.464Z,96680.09
2019-02-10T10:55:34.038Z,96678.48
2019-02-10T10:58:03.717Z,96671.94
2019-02-10T11:00:33.275Z,96668.24
2019-02-10T11:03:02.648Z,96665.31
2019-02-10T11:05:32.357Z,96651.09
2019-02-10T11:08:03.074Z,96637.59
2019-02-10T11:10:32.755Z,96637.27
2019-02-10T11:13:02.372Z,96634.44
2019-02-10T11:15:31.678Z,96618.63
2019-02-10T11:18:01.170Z,96613.09
2019-02-10T11:20:30.707Z,96614.47
2019-02-10T11:23:00.393Z,96608.90
2019-02-10T11:25:30.016Z,96603.27
2019-02-10T11:27:59.495Z,96583.00
2019-02-10T11:30:29.114Z,96580.23
2019-02-10T11:32:58.740Z,96577.91
2019-02-10T11:35:28.491Z,96556.91
2019-02-10T11:37:58.138Z,96547.56
2019-02-10T11:40:27.676Z,96540.11
2019-02-10T11:42:57.603Z,96537.05
2019-02-10T11:45:28.742Z,96526.13
2019-02-10T11:47:58.594Z,96517.94
2019-02-10T11:50:28.251Z,96517.96
2019-02-10T11:52:57.905Z,96515.61
2019-02-10T11:55:28.606Z,96513.09
2019-02-10T11:57:58.297Z,96506.08
2019-02-10T12:00:29.758Z,96535.16
2019-02-10T12:02:59.132Z,96507.06
2019-02-10T12:05:29.499Z,96521.08
2019-02-10T12:08:00.369Z,96499.05
2019-02-10T12:10:30.085Z,96487.74
2019-02-10T12:12:59.708Z,96468.43
2019-02-10T12:15:31.737Z,96470.38
2019-02-10T12:18:05.504Z,96457.51
2019-02-10T12:20:34.978Z,96465.52
2019-02-10T12:23:04.531Z,96452.05
2019-02-10T12:25:34.112Z,96453.61
2019-02-10T12:28:04.114Z,96437.22
2019-02-10T12:30:33.793Z,96433.13
2019-02-10T12:33:03.506Z,96427.87
2019-02-10T12:35:33.054Z,96419.70
2019-02-10T12:38:02.748Z,96396.29
2019-02-10T12:40:32.192Z,96396.09
2019-02-10T12:43:01.671Z,96378.75
2019-02-10T12:45:33.112Z,96384.97
2019-02-10T12:48:05.556Z,96367.44
2019-02-10T12:50:37.666Z,96361.59
2019-02-10T12:53:06.948Z,96353.61
2019-02-10T12:55:36.296Z,96356.72
2019-02-10T12:58:05.830Z,96359.44
2019-02-10T13:00:35.235Z,96344.05
2019-02-10T13:03:04.491Z,96344.06
2019-02-10T13:05:33.754Z,96355.77
2019-02-10T13:08:04.502Z,96340.16
2019-02-10T13:10:34.059Z,96324.95
2019-02-10T13:13:03.336Z,96319.31
2019-02-10T13:15:35.152Z,96332.77
2019-02-10T13:18:07.589Z,96310.92
2019-02-10T13:20:37.365Z,96312.51
2019-02-10T13:23:06.627Z,96297.87
2019-02-10T13:25:35.929Z,96292.58
2019-02-10T13:28:05.354Z,96288.31
2019-02-10T13:30:34.621Z,96283.25
2019-02-10T13:33:03.896Z,96286.56
2019-02-10T13:35:33.213Z,96281.11
2019-02-10T13:38:02.498Z,96278.21
2019-02-10T13:40:31.739Z,96263.72
2019-02-10T13:43:02.394Z,96265.70
2019-02-10T13:45:32.939Z,96263.77
2019-02-10T13:48:02.174Z,96269.61
2019-02-10T13:50:31.487Z,96263.91
2019-02-10T13:53:01.887Z,96258.27
2019-02-10T13:55:31.171Z,96248.91
2019-02-10T13:58:00.485Z,96251.98
2019-02-10T14:00:31.223Z,96260.16
2019-02-10T14:03:00.501Z,96252.77
2019-02-10T14:05:30.148Z,96248.12
2019-02-10T14:08:02.353Z,96253.53
2019-02-10T14:10:33.187Z,96260.73
2019-02-10T14:13:02.525Z,96264.64
2019-02-10T14:15:33.087Z,96252.93
2019-02-10T14:18:02.440Z,96265.77
2019-02-10T14:20:33.344Z,96270.58
2019-02-10T14:23:04.559Z,96269.30
2019-02-10T14:25:33.819Z,96278.67
2019-02-10T14:28:03.090Z,96277.61
2019-02-10T14:30:33.835Z,96280.63
2019-02-10T14:33:04.000Z,96284.70
2019-02-10T14:35:33.296Z,96286.88
2019-02-10T14:38:02.588Z,96294.55
2019-02-10T14:40:33.715Z,96299.05
2019-02-10T14:43:02.964Z,96312.76
2019-02-10T14:45:32.268Z,96316.70
2019-02-10T14:48:01.564Z,96309.92
2019-02-10T14:50:30.852Z,96310.35
2019-02-10T14:53:00.135Z,96322.97
2019-02-10T14:55:29.480Z,96316.55
2019-02-10T14:57:58.729Z,96313.59
2019-02-10T15:00:28.027Z,96313.56
2019-02-10T15:02:57.346Z,96294.83
2019-02-10T15:05:26.662Z,96296.38
2019-02-10T15:07:55.983Z,96294.05
2019-02-10T15:10:25.277Z,96269.16
2019-02-10T15:12:54.555Z,96266.03
2019-02-10T15:15:24.138Z,96265.66
2019-02-10T15:17:53.427Z,96255.15
2019-02-10T15:20:22.705Z,96257.66
2019-02-10T15:22:51.954Z,96257.09
2019-02-10T15:25:21.250Z,96251.62
2019-02-10T15:27:50.527Z,96260.55
2019-02-10T15:30:19.821Z,96255.84
2019-02-10T15:32:49.111Z,96251.14
2019-02-10T15:35:18.673Z,96246.30
2019-02-10T15:37:47.963Z,96246.23
2019-02-10T15:40:17.280Z,96236.73
2019-02-10T15:42:46.545Z,96235.01
2019-02-10T15:45:15.847Z,96227.80
2019-02-10T15:47:45.111Z,96224.66
2019-02-10T15:50:14.444Z,96224.89
2019-02-10T15:52:43.699Z,96233.41
2019-02-10T15:55:12.967Z,96227.41
2019-02-10T15:57:43.392Z,96216.11
2019-02-10T16:00:14.771Z,96221.67
2019-02-10T16:02:44.022Z,96226.80
2019-02-10T16:05:13.403Z,96222.07
2019-02-10T16:07:42.775Z,96217.39
2019-02-10T16:10:13.598Z,96210.17
2019-02-10T16:12:43.034Z,96208.21
2019-02-10T16:15:14.290Z,96201.16
2019-02-10T16:17:43.536Z,96186.03
2019-02-10T16:20:13.679Z,96177.11
2019-02-10T16:22:43.893Z,96158.84
2019-02-10T16:25:13.204Z,96173.66
2019-02-10T16:27:42.492Z,96168.61
2019-02-10T16:30:13.107Z,96165.69
2019-02-10T16:32:49.734Z,96156.37
2019-02-10T16:35:15.385Z,96173.30
2019-02-10T16:37:44.717Z,96166.66
2019-02-10T16:40:15.931Z,96168.02
2019-02-10T16:42:45.211Z,96174.08
2019-02-10T16:45:14.865Z,96177.23
2019-02-10T16:47:44.204Z,96176.45
2019-02-10T16:50:13.748Z,96177.22
2019-02-10T16:52:43.087Z,96177.22
2019-02-10T16:55:13.289Z,96186.73
2019-02-10T16:57:43.790Z,96210.47
2019-02-10T17:00:14.276Z,96234.37
2019-02-10T17:02:43.681Z,96273.59
2019-02-10T17:05:13.465Z,96273.13
2019-02-10T17:07:42.821Z,96302.81
2019-02-10T17:10:13.143Z,96298.36
2019-02-10T17:12:42.803Z,96310.84
2019-02-10T17:15:13.808Z,96303.00
2019-02-10T17:17:44.368Z,96320.37
2019-02-10T17:20:13.917Z,96314.06
2019-02-10T17:22:46.250Z,96322.28
2019-02-10T17:25:17.918Z,96325.72
2019-02-10T17:27:47.321Z,96318.52
2019-02-10T17:30:16.771Z,96331.21
2019-02-10T17:32:46.039Z,96343.51
2019-02-10T17:35:15.371Z,96338.72
2019-02-10T17:37:44.655Z,96332.97
2019-02-10T17:40:27.443Z,96339.23
2019-02-10T17:42:56.971Z,96346.52
2019-02-10T17:45:26.691Z,96363.36
2019-02-10T17:47:56.573Z,96373.06
2019-02-10T17:50:26.963Z,96380.83
2019-02-10T17:52:56.694Z,96392.33
2019-02-10T17:55:26.071Z,96379.47
2019-02-10T17:57:55.393Z,96385.25
2019-02-10T18:00:28.202Z,96389.95
2019-02-10T18:03:00.901Z,96406.43
2019-02-10T18:05:32.778Z,96406.14
2019-02-10T18:08:02.097Z,96403.03
2019-02-10T18:10:31.463Z,96404.20
2019-02-10T18:13:03.864Z,96412.91
2019-02-10T18:16:11.846Z,96408.21
2019-02-10T18:19:06.328Z,96408.64
2019-02-10T18:21:53.278Z,96411.85
2019-02-10T18:24:28.734Z,96413.84
2019-02-10T18:27:30.768Z,96418.48
2019-02-10T18:30:30.007Z,96410.50
2019-02-10T18:33:17.207Z,96407.42
2019-02-10T18:36:06.028Z,96418.98
2019-02-10T18:39:00.856Z,96425.47
2019-02-10T18:41:40.672Z,96429.33
2019-02-10T18:44:35.166Z,96437.81
2019-02-10T18:47:13.036Z,96447.52
2019-02-10T18:49:50.656Z,96470.85
2019-02-10T18:52:51.594Z,96468.78
2019-02-10T18:55:38.371Z,96461.79
2019-02-10T18:58:34.285Z,96476.06
2019-02-10T19:01:23.597Z,96478.84
2019-02-10T19:04:14.595Z,96484.44
2019-02-10T19:06:49.542Z,96492.57
2019-02-10T19:09:30.875Z,96503.77
2019-02-10T19:12:19.683Z,96497.61
2019-02-10T19:15:15.871Z,96515.39
2019-02-10T19:18:04.101Z,96533.58
2019-02-10T19:20:53.338Z,96541.28
2019-02-10T19:23:40.417Z,96539.71
2019-02-10T19:26:31.643Z,96545.84
2019-02-10T19:29:25.534Z,96547.20
2019-02-10T19:32:14.226Z,96557.11
2019-02-10T19:35:15.217Z,96558.47
2019-02-10T19:38:09.493Z,96534.72
2019-02-10T19:40:54.522Z,96545.20
2019-02-10T19:43:43.306Z,96551.34
2019-02-10T19:46:33.590Z,96545.48
2019-02-10T19:49:12.769Z,96574.22
2019-02-10T19:51:52.762Z,96580.09
2019-02-10T19:54:28.175Z,96539.08
2019-02-10T19:57:27.425Z,96595.89
2019-02-10T20:00:15.647Z,96592.88
2019-02-10T20:03:09.074Z,96581.40
2019-02-10T20:05:48.998Z,96578.20
2019-02-10T20:08:36.378Z,96597.65
2019-02-10T20:11:13.969Z,96592.88
2019-02-10T20:13:56.742Z,96603.06
2019-02-10T20:16:44.961Z,96599.92
2019-02-10T20:19:24.856Z,96605.07
2019-02-10T20:22:13.101Z,96596.38
2019-02-10T20:25:10.601Z,96598.22
2019-02-10T20:28:01.621Z,96603.77
2019-02-10T20:30:44.211Z,96615.58
2019-02-10T20:33:27.034Z,96607.96
2019-02-10T20:36:04.005Z,96603.47
2019-02-10T20:38:58.579Z,96581.50
2019-02-10T20:41:37.923Z,96608.93
2019-02-10T20:44:29.274Z,96611.81
2019-02-10T20:47:22.128Z,96587.14
2019-02-10T20:50:04.414Z,96599.54
2019-02-10T20:52:52.302Z,96596.83
2019-02-10T20:55:28.747Z,96594.99
2019-02-10T20:58:20.777Z,96580.23
2019-02-10T21:01:05.563Z,96595.05
2019-02-10T21:03:54.121Z,96601.45
2019-02-10T21:06:45.660Z,96591.55
2019-02-10T21:09:20.131Z,96603.78
2019-02-10T21:12:20.537Z,96603.38
2019-02-10T21:14:59.406Z,96622.80
2019-02-10T21:17:46.285Z,96621.14
2019-02-10T21:20:35.084Z,96629.48
2019-02-10T21:23:13.454Z,96635.69
2019-02-10T21:25:55.822Z,96633.41
2019-02-10T21:28:34.633Z,96634.20
2019-02-10T21:31:18.188Z,96628.70
2019-02-10T21:34:25.335Z,96616.78
2019-02-10T21:37:07.023Z,96623.83
2019-02-10T21:40:06.205Z,96616.13
2019-02-10T21:42:56.017Z,96629.30
2019-02-10T21:45:35.207Z,96618.07
2019-02-10T21:48:20.606Z,96633.78
2019-02-10T21:50:50.256Z,96615.72
2019-02-10T21:53:20.031Z,96621.91
2019-02-10T21:55:49.354Z,96603.02
2019-02-10T21:58:19.038Z,96619.99
2019-02-10T22:00:48.508Z,96633.52
2019-02-10T22:03:18.026Z,96626.95
2019-02-10T22:05:48.023Z,96592.40
2019-02-10T22:08:17.634Z,96641.81
2019-02-10T22:10:47.223Z,96627.05
2019-02-10T22:13:16.844Z,96628.97
2019-02-10T22:15:47.000Z,96646.47
2019-02-10T22:18:17.838Z,96649.91
2019-02-10T22:20:47.455Z,96655.25
2019-02-10T22:23:16.929Z,96648.83
2019-02-10T22:25:46.263Z,96651.66
2019-02-10T22:28:15.916Z,96652.39
2019-02-10T22:30:45.609Z,96645.41
2019-02-10T22:33:15.046Z,96652.55
2019-02-10T22:35:44.464Z,96662.83
2019-02-10T22:38:13.946Z,96673.41
2019-02-10T22:40:43.640Z,96676.19
2019-02-10T22:43:13.394Z,96671.27
2019-02-10T22:45:43.167Z,96689.78
2019-02-10T22:48:12.782Z,96687.99
2019-02-10T22:50:42.363Z,96704.45
2019-02-10T22:53:12.052Z,96710.30
2019-02-10T22:55:41.613Z,96711.22
2019-02-10T22:58:10.875Z,96722.03
2019-02-10T23:00:48.172Z,96725.17
2019-02-10T23:03:18.315Z,96731.03
2019-02-10T23:05:49.346Z,96713.94
2019-02-10T23:08:18.954Z,96736.48
2019-02-10T23:10:48.573Z,96718.44
2019-02-10T23:13:18.653Z,96743.68
2019-02-10T23:15:48.070Z,96753.41
2019-02-10T23:18:17.662Z,96758.44
2019-02-10T23:20:47.273Z,96762.95
2019-02-10T23:23:16.930Z,96762.95
2019-02-10T23:25:46.388Z,96767.38
2019-02-10T23:28:16.360Z,96784.80
2019-02-10T23:30:45.940Z,96812.40
2019-02-10T23:33:15.584Z,96809.25
2019-02-10T23:35:45.288Z,96805.23
2019-02-10T23:38:14.535Z,96822.81
2019-02-10T23:40:43.835Z,96815.15
2019-02-10T23:43:13.504Z,96826.41
2019-02-10T23:45:42.889Z,96832.52
2019-02-10T23:48:12.572Z,96834.75
2019-02-10T23:50:42.140Z,96841.05
2019-02-10T23:53:11.663Z,96840.16
2019-02-10T23:55:41.006Z,96851.22
2019-02-10T23:58:10.422Z,96844.23
